sensor_id;sensor_type;location;lat;lon;timestamp;P1;durP1;ratioP1;P2;durP2;ratioP2
5831;SDS011;50943;51.448;7.646;2023-05-13T00:00:15;33.73;;;16.07;;
5831;SDS011;50943;51.448;7.646;2023-05-13T00:02:42;28.70;;;16.43;;
5831;SDS011;50943;51.448;7.646;2023-05-13T00:05:08;28.80;;;14.50;;
5831;SDS011;50943;51.448;7.646;2023-05-13T00:07:34;17.67;;;12.90;;
5831;SDS011;50943;51.448;7.646;2023-05-13T00:10:01;16.90;;;12.30;;
5831;SDS011;50943;51.448;7.646;2023-05-13T00:12:27;15.57;;;10.77;;
5831;SDS011;50943;51.448;7.646;2023-05-13T00:14:55;17.83;;;11.03;;
5831;SDS011;50943;51.448;7.646;2023-05-13T00:17:23;14.47;;;10.40;;
5831;SDS011;50943;51.448;7.646;2023-05-13T00:19:49;17.93;;;11.40;;
5831;SDS011;50943;51.448;7.646;2023-05-13T00:22:15;17.00;;;12.30;;
5831;SDS011;50943;51.448;7.646;2023-05-13T00:24:42;18.40;;;11.90;;
5831;SDS011;50943;51.448;7.646;2023-05-13T00:27:08;17.73;;;12.57;;
5831;SDS011;50943;51.448;7.646;2023-05-13T00:29:35;16.33;;;11.80;;
5831;SDS011;50943;51.448;7.646;2023-05-13T00:32:01;14.60;;;9.20;;
5831;SDS011;50943;51.448;7.646;2023-05-13T00:34:29;12.03;;;9.23;;
5831;SDS011;50943;51.448;7.646;2023-05-13T00:36:56;11.43;;;8.70;;
5831;SDS011;50943;51.448;7.646;2023-05-13T00:39:22;15.27;;;9.13;;
5831;SDS011;50943;51.448;7.646;2023-05-13T00:41:48;21.43;;;10.80;;
5831;SDS011;50943;51.448;7.646;2023-05-13T00:44:15;38.53;;;13.37;;
5831;SDS011;50943;51.448;7.646;2023-05-13T00:46:41;35.57;;;11.90;;
5831;SDS011;50943;51.448;7.646;2023-05-13T00:49:07;34.93;;;12.23;;
5831;SDS011;50943;51.448;7.646;2023-05-13T00:51:35;27.37;;;12.80;;
5831;SDS011;50943;51.448;7.646;2023-05-13T00:54:02;39.03;;;13.70;;
5831;SDS011;50943;51.448;7.646;2023-05-13T00:56:29;45.53;;;13.90;;
5831;SDS011;50943;51.448;7.646;2023-05-13T00:58:55;58.33;;;15.07;;
5831;SDS011;50943;51.448;7.646;2023-05-13T01:01:23;53.67;;;15.87;;
5831;SDS011;50943;51.448;7.646;2023-05-13T01:03:52;26.07;;;14.37;;
5831;SDS011;50943;51.448;7.646;2023-05-13T01:06:22;34.37;;;14.10;;
5831;SDS011;50943;51.448;7.646;2023-05-13T01:08:53;71.70;;;15.50;;
5831;SDS011;50943;51.448;7.646;2023-05-13T01:11:23;63.27;;;15.40;;
5831;SDS011;50943;51.448;7.646;2023-05-13T01:13:52;36.00;;;14.80;;
5831;SDS011;50943;51.448;7.646;2023-05-13T01:16:20;39.83;;;14.80;;
5831;SDS011;50943;51.448;7.646;2023-05-13T01:18:51;43.13;;;14.77;;
5831;SDS011;50943;51.448;7.646;2023-05-13T01:21:23;50.07;;;15.00;;
5831;SDS011;50943;51.448;7.646;2023-05-13T01:23:50;34.47;;;13.70;;
5831;SDS011;50943;51.448;7.646;2023-05-13T01:26:16;48.67;;;13.80;;
5831;SDS011;50943;51.448;7.646;2023-05-13T01:28:43;39.13;;;14.90;;
5831;SDS011;50943;51.448;7.646;2023-05-13T01:31:09;33.07;;;14.03;;
5831;SDS011;50943;51.448;7.646;2023-05-13T01:33:35;49.90;;;13.90;;
5831;SDS011;50943;51.448;7.646;2023-05-13T01:36:02;26.77;;;12.93;;
5831;SDS011;50943;51.448;7.646;2023-05-13T01:38:30;27.10;;;13.57;;
5831;SDS011;50943;51.448;7.646;2023-05-13T01:40:57;36.13;;;14.27;;
5831;SDS011;50943;51.448;7.646;2023-05-13T01:43:24;36.30;;;13.90;;
5831;SDS011;50943;51.448;7.646;2023-05-13T01:45:50;37.40;;;13.23;;
5831;SDS011;50943;51.448;7.646;2023-05-13T01:48:16;27.93;;;12.67;;
5831;SDS011;50943;51.448;7.646;2023-05-13T01:50:43;27.23;;;11.90;;
5831;SDS011;50943;51.448;7.646;2023-05-13T01:53:10;28.90;;;11.43;;
5831;SDS011;50943;51.448;7.646;2023-05-13T01:55:37;36.23;;;11.83;;
5831;SDS011;50943;51.448;7.646;2023-05-13T01:58:04;26.40;;;11.90;;
5831;SDS011;50943;51.448;7.646;2023-05-13T02:00:30;20.33;;;10.97;;
5831;SDS011;50943;51.448;7.646;2023-05-13T02:02:56;18.87;;;10.53;;
5831;SDS011;50943;51.448;7.646;2023-05-13T02:05:23;16.73;;;9.63;;
5831;SDS011;50943;51.448;7.646;2023-05-13T02:07:50;18.00;;;11.20;;
5831;SDS011;50943;51.448;7.646;2023-05-13T02:10:16;18.03;;;10.77;;
5831;SDS011;50943;51.448;7.646;2023-05-13T02:12:44;16.37;;;10.87;;
5831;SDS011;50943;51.448;7.646;2023-05-13T02:15:11;14.17;;;10.40;;
5831;SDS011;50943;51.448;7.646;2023-05-13T02:17:38;18.33;;;9.77;;
5831;SDS011;50943;51.448;7.646;2023-05-13T02:20:05;22.33;;;8.47;;
5831;SDS011;50943;51.448;7.646;2023-05-13T02:22:31;12.77;;;9.60;;
5831;SDS011;50943;51.448;7.646;2023-05-13T02:24:57;19.40;;;10.03;;
5831;SDS011;50943;51.448;7.646;2023-05-13T02:27:24;15.47;;;9.90;;
5831;SDS011;50943;51.448;7.646;2023-05-13T02:29:51;25.70;;;11.00;;
5831;SDS011;50943;51.448;7.646;2023-05-13T02:32:18;23.23;;;10.93;;
5831;SDS011;50943;51.448;7.646;2023-05-13T02:34:44;70.40;;;11.93;;
5831;SDS011;50943;51.448;7.646;2023-05-13T02:37:10;34.03;;;11.77;;
5831;SDS011;50943;51.448;7.646;2023-05-13T02:39:37;28.10;;;11.00;;
5831;SDS011;50943;51.448;7.646;2023-05-13T02:42:04;31.40;;;11.63;;
5831;SDS011;50943;51.448;7.646;2023-05-13T02:44:30;42.97;;;13.13;;
5831;SDS011;50943;51.448;7.646;2023-05-13T02:46:58;31.43;;;13.70;;
5831;SDS011;50943;51.448;7.646;2023-05-13T02:49:25;31.83;;;12.37;;
5831;SDS011;50943;51.448;7.646;2023-05-13T02:51:51;44.17;;;12.53;;
5831;SDS011;50943;51.448;7.646;2023-05-13T02:54:17;21.80;;;13.60;;
5831;SDS011;50943;51.448;7.646;2023-05-13T02:56:44;23.50;;;11.43;;
5831;SDS011;50943;51.448;7.646;2023-05-13T02:59:10;42.90;;;13.80;;
5831;SDS011;50943;51.448;7.646;2023-05-13T03:01:36;19.57;;;11.50;;
5831;SDS011;50943;51.448;7.646;2023-05-13T03:04:04;35.13;;;11.27;;
5831;SDS011;50943;51.448;7.646;2023-05-13T03:06:31;26.20;;;12.27;;
5831;SDS011;50943;51.448;7.646;2023-05-13T03:08:57;21.47;;;11.03;;
5831;SDS011;50943;51.448;7.646;2023-05-13T03:11:23;28.73;;;12.23;;
5831;SDS011;50943;51.448;7.646;2023-05-13T03:13:50;21.03;;;12.03;;
5831;SDS011;50943;51.448;7.646;2023-05-13T03:16:17;18.37;;;9.80;;
5831;SDS011;50943;51.448;7.646;2023-05-13T03:18:43;18.10;;;9.60;;
5831;SDS011;50943;51.448;7.646;2023-05-13T03:21:11;18.07;;;9.83;;
5831;SDS011;50943;51.448;7.646;2023-05-13T03:23:37;20.23;;;9.37;;
5831;SDS011;50943;51.448;7.646;2023-05-13T03:26:04;26.33;;;10.00;;
5831;SDS011;50943;51.448;7.646;2023-05-13T03:28:30;17.00;;;10.00;;
5831;SDS011;50943;51.448;7.646;2023-05-13T03:30:56;22.17;;;10.37;;
5831;SDS011;50943;51.448;7.646;2023-05-13T03:33:23;16.83;;;11.70;;
5831;SDS011;50943;51.448;7.646;2023-05-13T03:35:49;18.93;;;12.07;;
5831;SDS011;50943;51.448;7.646;2023-05-13T03:38:17;20.63;;;12.57;;
5831;SDS011;50943;51.448;7.646;2023-05-13T03:40:43;25.53;;;12.40;;
5831;SDS011;50943;51.448;7.646;2023-05-13T03:43:09;19.30;;;11.73;;
5831;SDS011;50943;51.448;7.646;2023-05-13T03:45:36;20.20;;;11.73;;
5831;SDS011;50943;51.448;7.646;2023-05-13T03:48:02;18.00;;;12.17;;
5831;SDS011;50943;51.448;7.646;2023-05-13T03:50:28;14.80;;;11.20;;
5831;SDS011;50943;51.448;7.646;2023-05-13T03:52:55;16.37;;;11.77;;
5831;SDS011;50943;51.448;7.646;2023-05-13T03:55:23;15.57;;;11.27;;
5831;SDS011;50943;51.448;7.646;2023-05-13T03:57:49;13.83;;;9.70;;
5831;SDS011;50943;51.448;7.646;2023-05-13T04:00:15;16.20;;;9.87;;
5831;SDS011;50943;51.448;7.646;2023-05-13T04:02:42;14.43;;;10.40;;
5831;SDS011;50943;51.448;7.646;2023-05-13T04:05:08;16.37;;;9.97;;
5831;SDS011;50943;51.448;7.646;2023-05-13T04:07:36;17.70;;;9.70;;
5831;SDS011;50943;51.448;7.646;2023-05-13T04:10:02;17.20;;;10.60;;
5831;SDS011;50943;51.448;7.646;2023-05-13T04:12:30;12.10;;;9.03;;
5831;SDS011;50943;51.448;7.646;2023-05-13T04:14:57;13.47;;;9.97;;
5831;SDS011;50943;51.448;7.646;2023-05-13T04:17:23;14.00;;;9.60;;
5831;SDS011;50943;51.448;7.646;2023-05-13T04:19:51;13.40;;;10.03;;
5831;SDS011;50943;51.448;7.646;2023-05-13T04:22:17;12.27;;;9.80;;
5831;SDS011;50943;51.448;7.646;2023-05-13T04:24:44;16.53;;;10.53;;
5831;SDS011;50943;51.448;7.646;2023-05-13T04:27:10;17.40;;;9.40;;
5831;SDS011;50943;51.448;7.646;2023-05-13T04:29:38;21.23;;;9.20;;
5831;SDS011;50943;51.448;7.646;2023-05-13T04:32:05;36.03;;;10.80;;
5831;SDS011;50943;51.448;7.646;2023-05-13T04:34:31;38.50;;;10.10;;
5831;SDS011;50943;51.448;7.646;2023-05-13T04:36:57;14.53;;;9.93;;
5831;SDS011;50943;51.448;7.646;2023-05-13T04:39:24;19.60;;;10.07;;
5831;SDS011;50943;51.448;7.646;2023-05-13T04:41:50;27.87;;;10.70;;
5831;SDS011;50943;51.448;7.646;2023-05-13T04:44:16;104.97;;;12.03;;
5831;SDS011;50943;51.448;7.646;2023-05-13T04:46:44;17.27;;;10.10;;
5831;SDS011;50943;51.448;7.646;2023-05-13T04:49:10;180.60;;;11.70;;
5831;SDS011;50943;51.448;7.646;2023-05-13T04:51:37;33.73;;;10.60;;
5831;SDS011;50943;51.448;7.646;2023-05-13T04:54:03;37.17;;;9.83;;
5831;SDS011;50943;51.448;7.646;2023-05-13T04:56:29;63.50;;;10.53;;
5831;SDS011;50943;51.448;7.646;2023-05-13T04:58:56;71.43;;;10.50;;
5831;SDS011;50943;51.448;7.646;2023-05-13T05:01:22;56.47;;;9.73;;
5831;SDS011;50943;51.448;7.646;2023-05-13T05:03:50;66.03;;;10.50;;
5831;SDS011;50943;51.448;7.646;2023-05-13T05:06:16;42.57;;;10.10;;
5831;SDS011;50943;51.448;7.646;2023-05-13T05:08:42;19.00;;;8.93;;
5831;SDS011;50943;51.448;7.646;2023-05-13T05:11:09;14.70;;;9.87;;
5831;SDS011;50943;51.448;7.646;2023-05-13T05:13:35;14.73;;;9.50;;
5831;SDS011;50943;51.448;7.646;2023-05-13T05:16:02;13.53;;;9.87;;
5831;SDS011;50943;51.448;7.646;2023-05-13T05:18:28;16.40;;;9.50;;
5831;SDS011;50943;51.448;7.646;2023-05-13T05:20:56;14.97;;;10.07;;
5831;SDS011;50943;51.448;7.646;2023-05-13T05:23:22;19.43;;;9.80;;
5831;SDS011;50943;51.448;7.646;2023-05-13T05:25:48;20.67;;;9.80;;
5831;SDS011;50943;51.448;7.646;2023-05-13T05:28:15;11.43;;;9.03;;
5831;SDS011;50943;51.448;7.646;2023-05-13T05:30:41;15.20;;;9.27;;
5831;SDS011;50943;51.448;7.646;2023-05-13T05:33:07;14.20;;;8.80;;
5831;SDS011;50943;51.448;7.646;2023-05-13T05:35:34;15.50;;;10.30;;
5831;SDS011;50943;51.448;7.646;2023-05-13T05:38:03;14.23;;;10.73;;
5831;SDS011;50943;51.448;7.646;2023-05-13T05:40:30;14.97;;;10.70;;
5831;SDS011;50943;51.448;7.646;2023-05-13T05:42:56;17.33;;;11.70;;
5831;SDS011;50943;51.448;7.646;2023-05-13T05:45:22;16.33;;;11.80;;
5831;SDS011;50943;51.448;7.646;2023-05-13T05:47:49;16.97;;;13.20;;
5831;SDS011;50943;51.448;7.646;2023-05-13T05:50:15;27.70;;;13.30;;
5831;SDS011;50943;51.448;7.646;2023-05-13T05:52:41;15.23;;;11.80;;
5831;SDS011;50943;51.448;7.646;2023-05-13T05:55:09;16.17;;;11.97;;
5831;SDS011;50943;51.448;7.646;2023-05-13T05:57:36;14.40;;;12.00;;
5831;SDS011;50943;51.448;7.646;2023-05-13T06:00:02;18.60;;;14.57;;
5831;SDS011;50943;51.448;7.646;2023-05-13T06:02:29;14.47;;;11.87;;
5831;SDS011;50943;51.448;7.646;2023-05-13T06:04:55;14.80;;;10.70;;
5831;SDS011;50943;51.448;7.646;2023-05-13T06:07:22;19.43;;;11.53;;
5831;SDS011;50943;51.448;7.646;2023-05-13T06:09:48;15.57;;;10.80;;
5831;SDS011;50943;51.448;7.646;2023-05-13T06:12:16;15.40;;;10.77;;
5831;SDS011;50943;51.448;7.646;2023-05-13T06:14:43;12.67;;;9.50;;
5831;SDS011;50943;51.448;7.646;2023-05-13T06:17:10;11.93;;;9.23;;
5831;SDS011;50943;51.448;7.646;2023-05-13T06:19:38;14.63;;;10.43;;
5831;SDS011;50943;51.448;7.646;2023-05-13T06:22:06;12.33;;;9.80;;
5831;SDS011;50943;51.448;7.646;2023-05-13T06:24:32;12.57;;;10.20;;
5831;SDS011;50943;51.448;7.646;2023-05-13T06:26:59;15.33;;;10.17;;
5831;SDS011;50943;51.448;7.646;2023-05-13T06:29:27;19.93;;;11.60;;
5831;SDS011;50943;51.448;7.646;2023-05-13T06:31:53;14.80;;;9.97;;
5831;SDS011;50943;51.448;7.646;2023-05-13T06:34:19;15.10;;;10.53;;
5831;SDS011;50943;51.448;7.646;2023-05-13T06:36:46;10.93;;;9.33;;
5831;SDS011;50943;51.448;7.646;2023-05-13T06:39:12;11.40;;;7.63;;
5831;SDS011;50943;51.448;7.646;2023-05-13T06:41:40;9.83;;;7.70;;
5831;SDS011;50943;51.448;7.646;2023-05-13T06:44:06;10.50;;;6.93;;
5831;SDS011;50943;51.448;7.646;2023-05-13T06:46:34;13.17;;;6.60;;
5831;SDS011;50943;51.448;7.646;2023-05-13T06:49:00;12.67;;;6.90;;
5831;SDS011;50943;51.448;7.646;2023-05-13T06:51:27;9.67;;;6.90;;
5831;SDS011;50943;51.448;7.646;2023-05-13T06:53:54;9.17;;;6.67;;
5831;SDS011;50943;51.448;7.646;2023-05-13T06:56:21;8.90;;;6.73;;
5831;SDS011;50943;51.448;7.646;2023-05-13T06:58:47;15.77;;;7.17;;
5831;SDS011;50943;51.448;7.646;2023-05-13T07:01:14;12.13;;;6.33;;
5831;SDS011;50943;51.448;7.646;2023-05-13T07:03:42;12.53;;;6.13;;
5831;SDS011;50943;51.448;7.646;2023-05-13T07:06:08;9.90;;;6.80;;
5831;SDS011;50943;51.448;7.646;2023-05-13T07:08:35;9.30;;;6.43;;
5831;SDS011;50943;51.448;7.646;2023-05-13T07:11:01;8.77;;;6.30;;
5831;SDS011;50943;51.448;7.646;2023-05-13T07:13:28;9.93;;;6.30;;
5831;SDS011;50943;51.448;7.646;2023-05-13T07:15:56;7.90;;;6.07;;
5831;SDS011;50943;51.448;7.646;2023-05-13T07:18:22;7.70;;;6.73;;
5831;SDS011;50943;51.448;7.646;2023-05-13T07:20:50;9.53;;;6.67;;
5831;SDS011;50943;51.448;7.646;2023-05-13T07:23:16;9.23;;;6.90;;
5831;SDS011;50943;51.448;7.646;2023-05-13T07:25:43;7.17;;;6.43;;
5831;SDS011;50943;51.448;7.646;2023-05-13T07:28:09;7.70;;;5.70;;
5831;SDS011;50943;51.448;7.646;2023-05-13T07:30:35;10.50;;;5.80;;
5831;SDS011;50943;51.448;7.646;2023-05-13T07:33:04;8.07;;;6.23;;
5831;SDS011;50943;51.448;7.646;2023-05-13T07:35:30;9.70;;;6.13;;
5831;SDS011;50943;51.448;7.646;2023-05-13T07:37:58;10.37;;;5.90;;
5831;SDS011;50943;51.448;7.646;2023-05-13T07:40:24;10.30;;;7.13;;
5831;SDS011;50943;51.448;7.646;2023-05-13T07:42:51;10.40;;;6.40;;
5831;SDS011;50943;51.448;7.646;2023-05-13T07:45:17;7.20;;;5.83;;
5831;SDS011;50943;51.448;7.646;2023-05-13T07:47:44;9.97;;;6.70;;
5831;SDS011;50943;51.448;7.646;2023-05-13T07:50:10;7.43;;;6.30;;
5831;SDS011;50943;51.448;7.646;2023-05-13T07:52:37;8.97;;;6.90;;
5831;SDS011;50943;51.448;7.646;2023-05-13T07:55:05;10.90;;;7.53;;
5831;SDS011;50943;51.448;7.646;2023-05-13T07:57:32;9.37;;;6.90;;
5831;SDS011;50943;51.448;7.646;2023-05-13T07:59:58;11.87;;;7.70;;
5831;SDS011;50943;51.448;7.646;2023-05-13T08:02:25;11.57;;;7.10;;
5831;SDS011;50943;51.448;7.646;2023-05-13T08:04:52;9.93;;;6.30;;
5831;SDS011;50943;51.448;7.646;2023-05-13T08:07:18;11.10;;;6.30;;
5831;SDS011;50943;51.448;7.646;2023-05-13T08:09:45;9.40;;;6.47;;
5831;SDS011;50943;51.448;7.646;2023-05-13T08:12:12;10.47;;;5.97;;
5831;SDS011;50943;51.448;7.646;2023-05-13T08:14:39;10.13;;;6.20;;
5831;SDS011;50943;51.448;7.646;2023-05-13T08:17:05;7.40;;;6.33;;
5831;SDS011;50943;51.448;7.646;2023-05-13T08:19:32;15.27;;;6.57;;
5831;SDS011;50943;51.448;7.646;2023-05-13T08:21:58;8.57;;;5.70;;
5831;SDS011;50943;51.448;7.646;2023-05-13T08:24:24;9.80;;;6.63;;
5831;SDS011;50943;51.448;7.646;2023-05-13T08:26:54;10.33;;;6.33;;
5831;SDS011;50943;51.448;7.646;2023-05-13T08:29:21;9.30;;;6.10;;
5831;SDS011;50943;51.448;7.646;2023-05-13T08:31:48;12.80;;;6.20;;
5831;SDS011;50943;51.448;7.646;2023-05-13T08:34:15;8.80;;;5.90;;
5831;SDS011;50943;51.448;7.646;2023-05-13T08:36:42;7.00;;;5.70;;
5831;SDS011;50943;51.448;7.646;2023-05-13T08:39:08;10.93;;;6.33;;
5831;SDS011;50943;51.448;7.646;2023-05-13T08:41:35;8.23;;;6.00;;
5831;SDS011;50943;51.448;7.646;2023-05-13T08:44:03;11.67;;;5.97;;
5831;SDS011;50943;51.448;7.646;2023-05-13T08:46:31;8.40;;;5.53;;
5831;SDS011;50943;51.448;7.646;2023-05-13T08:48:57;9.37;;;5.47;;
5831;SDS011;50943;51.448;7.646;2023-05-13T08:51:24;7.90;;;5.20;;
5831;SDS011;50943;51.448;7.646;2023-05-13T08:53:50;8.57;;;4.80;;
5831;SDS011;50943;51.448;7.646;2023-05-13T08:56:17;7.80;;;5.10;;
5831;SDS011;50943;51.448;7.646;2023-05-13T08:58:43;8.50;;;5.27;;
5831;SDS011;50943;51.448;7.646;2023-05-13T09:01:10;9.50;;;4.60;;
5831;SDS011;50943;51.448;7.646;2023-05-13T09:03:39;11.63;;;4.97;;
5831;SDS011;50943;51.448;7.646;2023-05-13T09:06:08;7.97;;;4.10;;
5831;SDS011;50943;51.448;7.646;2023-05-13T09:08:34;8.10;;;4.53;;
5831;SDS011;50943;51.448;7.646;2023-05-13T09:11:00;7.83;;;4.20;;
5831;SDS011;50943;51.448;7.646;2023-05-13T09:13:27;6.90;;;4.83;;
5831;SDS011;50943;51.448;7.646;2023-05-13T09:15:53;8.10;;;4.30;;
5831;SDS011;50943;51.448;7.646;2023-05-13T09:18:20;7.40;;;4.17;;
5831;SDS011;50943;51.448;7.646;2023-05-13T09:20:47;5.33;;;4.20;;
5831;SDS011;50943;51.448;7.646;2023-05-13T09:23:14;6.80;;;4.27;;
5831;SDS011;50943;51.448;7.646;2023-05-13T09:25:42;6.57;;;4.20;;
5831;SDS011;50943;51.448;7.646;2023-05-13T09:28:08;6.73;;;4.10;;
5831;SDS011;50943;51.448;7.646;2023-05-13T09:30:39;11.57;;;4.23;;
5831;SDS011;50943;51.448;7.646;2023-05-13T09:33:06;6.43;;;4.30;;
5831;SDS011;50943;51.448;7.646;2023-05-13T09:35:34;8.70;;;4.40;;
5831;SDS011;50943;51.448;7.646;2023-05-13T09:38:03;13.70;;;4.80;;
5831;SDS011;50943;51.448;7.646;2023-05-13T09:40:36;7.17;;;4.00;;
5831;SDS011;50943;51.448;7.646;2023-05-13T09:43:03;4.83;;;4.10;;
5831;SDS011;50943;51.448;7.646;2023-05-13T09:45:31;5.93;;;3.90;;
5831;SDS011;50943;51.448;7.646;2023-05-13T09:47:59;8.47;;;4.07;;
5831;SDS011;50943;51.448;7.646;2023-05-13T09:50:25;6.20;;;4.40;;
5831;SDS011;50943;51.448;7.646;2023-05-13T09:52:52;6.30;;;4.70;;
5831;SDS011;50943;51.448;7.646;2023-05-13T09:55:20;7.50;;;4.37;;
5831;SDS011;50943;51.448;7.646;2023-05-13T09:57:47;6.43;;;4.10;;
5831;SDS011;50943;51.448;7.646;2023-05-13T10:00:14;5.73;;;3.70;;
5831;SDS011;50943;51.448;7.646;2023-05-13T10:02:40;8.63;;;4.63;;
5831;SDS011;50943;51.448;7.646;2023-05-13T10:05:07;5.50;;;4.03;;
5831;SDS011;50943;51.448;7.646;2023-05-13T10:07:34;7.40;;;3.87;;
5831;SDS011;50943;51.448;7.646;2023-05-13T10:10:02;7.63;;;4.07;;
5831;SDS011;50943;51.448;7.646;2023-05-13T10:12:30;5.00;;;3.80;;
5831;SDS011;50943;51.448;7.646;2023-05-13T10:14:57;6.27;;;4.70;;
5831;SDS011;50943;51.448;7.646;2023-05-13T10:17:24;7.77;;;4.10;;
5831;SDS011;50943;51.448;7.646;2023-05-13T10:19:51;7.07;;;3.87;;
5831;SDS011;50943;51.448;7.646;2023-05-13T10:22:19;6.87;;;3.80;;
5831;SDS011;50943;51.448;7.646;2023-05-13T10:24:46;6.30;;;3.80;;
5831;SDS011;50943;51.448;7.646;2023-05-13T10:27:13;6.80;;;3.80;;
5831;SDS011;50943;51.448;7.646;2023-05-13T10:29:42;6.13;;;3.63;;
5831;SDS011;50943;51.448;7.646;2023-05-13T10:32:08;6.50;;;3.50;;
5831;SDS011;50943;51.448;7.646;2023-05-13T10:34:36;4.40;;;3.70;;
5831;SDS011;50943;51.448;7.646;2023-05-13T10:37:09;5.43;;;3.33;;
5831;SDS011;50943;51.448;7.646;2023-05-13T10:39:52;5.43;;;3.30;;
5831;SDS011;50943;51.448;7.646;2023-05-13T10:42:41;5.20;;;3.10;;
5831;SDS011;50943;51.448;7.646;2023-05-13T10:45:09;6.80;;;3.47;;
5831;SDS011;50943;51.448;7.646;2023-05-13T10:47:36;4.53;;;3.30;;
5831;SDS011;50943;51.448;7.646;2023-05-13T10:50:06;7.57;;;4.00;;
5831;SDS011;50943;51.448;7.646;2023-05-13T10:52:41;4.40;;;3.10;;
5831;SDS011;50943;51.448;7.646;2023-05-13T10:55:13;5.33;;;3.03;;
5831;SDS011;50943;51.448;7.646;2023-05-13T10:57:40;7.40;;;3.80;;
5831;SDS011;50943;51.448;7.646;2023-05-13T11:00:14;4.83;;;3.20;;
5831;SDS011;50943;51.448;7.646;2023-05-13T11:02:41;6.33;;;3.50;;
5831;SDS011;50943;51.448;7.646;2023-05-13T11:05:08;6.13;;;3.10;;
5831;SDS011;50943;51.448;7.646;2023-05-13T11:07:36;12.73;;;3.63;;
5831;SDS011;50943;51.448;7.646;2023-05-13T11:10:03;6.60;;;2.90;;
5831;SDS011;50943;51.448;7.646;2023-05-13T11:12:30;7.43;;;3.40;;
5831;SDS011;50943;51.448;7.646;2023-05-13T11:14:56;7.30;;;4.20;;
5831;SDS011;50943;51.448;7.646;2023-05-13T11:17:24;9.00;;;3.50;;
5831;SDS011;50943;51.448;7.646;2023-05-13T11:19:51;6.27;;;3.57;;
5831;SDS011;50943;51.448;7.646;2023-05-13T11:22:18;5.10;;;3.63;;
5831;SDS011;50943;51.448;7.646;2023-05-13T11:24:45;4.73;;;3.40;;
5831;SDS011;50943;51.448;7.646;2023-05-13T11:27:13;5.83;;;2.90;;
5831;SDS011;50943;51.448;7.646;2023-05-13T11:29:46;5.40;;;3.47;;
5831;SDS011;50943;51.448;7.646;2023-05-13T11:32:13;4.33;;;2.90;;
5831;SDS011;50943;51.448;7.646;2023-05-13T11:34:48;5.90;;;3.07;;
5831;SDS011;50943;51.448;7.646;2023-05-13T11:37:15;6.70;;;3.10;;
5831;SDS011;50943;51.448;7.646;2023-05-13T11:39:42;5.40;;;3.20;;
5831;SDS011;50943;51.448;7.646;2023-05-13T11:42:08;3.83;;;2.60;;
5831;SDS011;50943;51.448;7.646;2023-05-13T11:44:36;9.10;;;3.00;;
5831;SDS011;50943;51.448;7.646;2023-05-13T11:47:03;5.63;;;3.07;;
5831;SDS011;50943;51.448;7.646;2023-05-13T11:49:32;5.00;;;2.90;;
5831;SDS011;50943;51.448;7.646;2023-05-13T11:52:00;4.57;;;3.20;;
5831;SDS011;50943;51.448;7.646;2023-05-13T11:54:27;8.90;;;2.67;;
5831;SDS011;50943;51.448;7.646;2023-05-13T11:56:53;4.70;;;2.73;;
5831;SDS011;50943;51.448;7.646;2023-05-13T11:59:20;7.90;;;3.10;;
5831;SDS011;50943;51.448;7.646;2023-05-13T12:01:56;12.27;;;3.10;;
5831;SDS011;50943;51.448;7.646;2023-05-13T12:04:26;4.53;;;2.90;;
5831;SDS011;50943;51.448;7.646;2023-05-13T12:06:52;5.80;;;2.90;;
5831;SDS011;50943;51.448;7.646;2023-05-13T12:09:22;5.60;;;2.93;;
5831;SDS011;50943;51.448;7.646;2023-05-13T12:11:48;4.70;;;2.70;;
5831;SDS011;50943;51.448;7.646;2023-05-13T12:14:15;5.23;;;2.80;;
5831;SDS011;50943;51.448;7.646;2023-05-13T12:16:41;6.20;;;3.07;;
5831;SDS011;50943;51.448;7.646;2023-05-13T12:19:08;6.13;;;2.97;;
5831;SDS011;50943;51.448;7.646;2023-05-13T12:21:36;7.33;;;3.10;;
5831;SDS011;50943;51.448;7.646;2023-05-13T12:24:15;4.70;;;2.73;;
5831;SDS011;50943;51.448;7.646;2023-05-13T12:26:43;5.73;;;2.73;;
5831;SDS011;50943;51.448;7.646;2023-05-13T12:29:10;6.60;;;3.00;;
5831;SDS011;50943;51.448;7.646;2023-05-13T12:31:36;7.57;;;3.27;;
5831;SDS011;50943;51.448;7.646;2023-05-13T12:34:02;12.30;;;2.57;;
5831;SDS011;50943;51.448;7.646;2023-05-13T12:36:30;5.30;;;2.90;;
5831;SDS011;50943;51.448;7.646;2023-05-13T12:39:00;8.63;;;2.80;;
5831;SDS011;50943;51.448;7.646;2023-05-13T12:41:27;4.70;;;3.23;;
5831;SDS011;50943;51.448;7.646;2023-05-13T12:43:57;12.00;;;3.00;;
5831;SDS011;50943;51.448;7.646;2023-05-13T12:46:23;5.80;;;3.10;;
5831;SDS011;50943;51.448;7.646;2023-05-13T12:48:51;3.63;;;2.70;;
5831;SDS011;50943;51.448;7.646;2023-05-13T12:51:18;3.77;;;2.57;;
5831;SDS011;50943;51.448;7.646;2023-05-13T12:53:44;7.00;;;3.20;;
5831;SDS011;50943;51.448;7.646;2023-05-13T12:56:10;4.67;;;2.93;;
5831;SDS011;50943;51.448;7.646;2023-05-13T12:58:37;3.63;;;2.90;;
5831;SDS011;50943;51.448;7.646;2023-05-13T13:01:04;5.70;;;2.30;;
5831;SDS011;50943;51.448;7.646;2023-05-13T13:03:31;2.63;;;2.27;;
5831;SDS011;50943;51.448;7.646;2023-05-13T13:05:57;4.13;;;2.60;;
5831;SDS011;50943;51.448;7.646;2023-05-13T13:08:23;4.47;;;2.60;;
5831;SDS011;50943;51.448;7.646;2023-05-13T13:10:50;4.10;;;2.40;;
5831;SDS011;50943;51.448;7.646;2023-05-13T13:13:16;4.17;;;2.77;;
5831;SDS011;50943;51.448;7.646;2023-05-13T13:15:42;4.20;;;2.60;;
5831;SDS011;50943;51.448;7.646;2023-05-13T13:18:10;10.30;;;2.90;;
5831;SDS011;50943;51.448;7.646;2023-05-13T13:20:36;5.93;;;2.63;;
5831;SDS011;50943;51.448;7.646;2023-05-13T13:23:03;4.70;;;2.90;;
5831;SDS011;50943;51.448;7.646;2023-05-13T13:25:30;5.57;;;2.70;;
5831;SDS011;50943;51.448;7.646;2023-05-13T13:27:57;5.13;;;2.60;;
5831;SDS011;50943;51.448;7.646;2023-05-13T13:30:23;3.87;;;2.77;;
5831;SDS011;50943;51.448;7.646;2023-05-13T13:32:50;6.80;;;2.80;;
5831;SDS011;50943;51.448;7.646;2023-05-13T13:35:18;5.33;;;2.90;;
5831;SDS011;50943;51.448;7.646;2023-05-13T13:37:44;4.93;;;2.57;;
5831;SDS011;50943;51.448;7.646;2023-05-13T13:40:11;4.83;;;2.53;;
5831;SDS011;50943;51.448;7.646;2023-05-13T13:42:37;3.53;;;2.93;;
5831;SDS011;50943;51.448;7.646;2023-05-13T13:45:04;8.30;;;3.10;;
5831;SDS011;50943;51.448;7.646;2023-05-13T13:47:30;6.47;;;3.60;;
5831;SDS011;50943;51.448;7.646;2023-05-13T13:49:57;4.53;;;3.00;;
5831;SDS011;50943;51.448;7.646;2023-05-13T13:52:25;5.57;;;3.27;;
5831;SDS011;50943;51.448;7.646;2023-05-13T13:54:52;6.30;;;3.53;;
5831;SDS011;50943;51.448;7.646;2023-05-13T13:57:20;8.40;;;3.77;;
5831;SDS011;50943;51.448;7.646;2023-05-13T13:59:46;4.00;;;3.10;;
5831;SDS011;50943;51.448;7.646;2023-05-13T14:02:12;5.80;;;3.30;;
5831;SDS011;50943;51.448;7.646;2023-05-13T14:04:39;10.00;;;3.83;;
5831;SDS011;50943;51.448;7.646;2023-05-13T14:07:05;5.50;;;3.13;;
5831;SDS011;50943;51.448;7.646;2023-05-13T14:09:33;6.80;;;3.53;;
5831;SDS011;50943;51.448;7.646;2023-05-13T14:11:59;4.63;;;3.57;;
5831;SDS011;50943;51.448;7.646;2023-05-13T14:14:26;4.23;;;2.77;;
5831;SDS011;50943;51.448;7.646;2023-05-13T14:16:52;4.63;;;2.77;;
5831;SDS011;50943;51.448;7.646;2023-05-13T14:19:18;4.47;;;2.87;;
5831;SDS011;50943;51.448;7.646;2023-05-13T14:21:45;4.50;;;3.27;;
5831;SDS011;50943;51.448;7.646;2023-05-13T14:24:11;8.50;;;3.00;;
5831;SDS011;50943;51.448;7.646;2023-05-13T14:26:39;8.87;;;2.97;;
5831;SDS011;50943;51.448;7.646;2023-05-13T14:29:05;4.03;;;2.70;;
5831;SDS011;50943;51.448;7.646;2023-05-13T14:31:32;3.73;;;2.50;;
5831;SDS011;50943;51.448;7.646;2023-05-13T14:33:58;6.20;;;2.90;;
5831;SDS011;50943;51.448;7.646;2023-05-13T14:36:24;6.83;;;2.40;;
5831;SDS011;50943;51.448;7.646;2023-05-13T14:38:51;4.60;;;2.90;;
5831;SDS011;50943;51.448;7.646;2023-05-13T14:41:18;5.43;;;3.13;;
5831;SDS011;50943;51.448;7.646;2023-05-13T14:43:48;5.20;;;2.60;;
5831;SDS011;50943;51.448;7.646;2023-05-13T14:46:14;4.70;;;2.47;;
5831;SDS011;50943;51.448;7.646;2023-05-13T14:48:40;5.13;;;3.00;;